createdAt,value
2017-06-10T00:02:15.588Z,7.20
2017-06-10T00:04:47.933Z,7.67
2017-06-10T00:07:20.439Z,8.93
2017-06-10T00:09:53.830Z,8.57
2017-06-10T00:12:26.324Z,10.33
2017-06-10T00:14:58.771Z,12.30
2017-06-10T00:17:31.286Z,10.13
2017-06-10T00:20:03.552Z,10.53
2017-06-10T00:22:35.940Z,9.80
2017-06-10T00:25:08.443Z,10.83
2017-06-10T00:27:40.847Z,10.60
2017-06-10T00:30:13.362Z,10.30
2017-06-10T00:32:47.121Z,8.73
2017-06-10T00:35:19.204Z,9.87
2017-06-10T00:37:51.527Z,9.13
2017-06-10T00:40:24.052Z,8.90
2017-06-10T00:42:57.530Z,10.30
2017-06-10T00:45:29.902Z,11.07
2017-06-10T00:48:02.407Z,12.43
2017-06-10T00:50:34.752Z,12.23
2017-06-10T00:53:07.042Z,12.93
2017-06-10T00:55:39.367Z,12.60
2017-06-10T00:58:11.704Z,11.00
2017-06-10T01:00:44.126Z,10.50
2017-06-10T01:03:16.542Z,11.20
2017-06-10T01:05:48.921Z,12.30
2017-06-10T01:08:21.551Z,12.77
2017-06-10T01:10:54.458Z,12.50
2017-06-10T01:13:27.195Z,12.57
2017-06-10T01:15:59.539Z,11.67
2017-06-10T01:18:32.028Z,10.57
2017-06-10T01:21:04.311Z,12.27
2017-06-10T01:23:37.708Z,10.30
2017-06-10T01:26:10.083Z,10.80
2017-06-10T01:28:42.547Z,11.37
2017-06-10T01:31:14.864Z,10.80
2017-06-10T01:33:47.454Z,12.50
2017-06-10T01:36:19.623Z,13.63
2017-06-10T01:38:52.139Z,13.40
2017-06-10T01:41:24.494Z,13.17
2017-06-10T01:43:57.085Z,13.60
2017-06-10T01:46:29.359Z,12.67
2017-06-10T01:49:01.801Z,12.20
2017-06-10T01:51:34.147Z,11.03
2017-06-10T01:54:06.512Z,13.43
2017-06-10T01:56:38.851Z,13.00
2017-06-10T01:59:11.222Z,13.67
2017-06-10T02:01:43.663Z,11.00
2017-06-10T02:04:16.189Z,12.70
2017-06-10T02:06:48.548Z,12.13
2017-06-10T02:09:21.052Z,11.20
2017-06-10T02:11:53.405Z,11.50
2017-06-10T02:14:25.774Z,12.70
2017-06-10T02:16:58.148Z,11.70
2017-06-10T02:19:31.604Z,12.60
2017-06-10T02:22:04.110Z,11.97
2017-06-10T02:24:36.522Z,10.73
2017-06-10T02:27:08.903Z,11.80
2017-06-10T02:29:42.383Z,12.30
2017-06-10T02:32:14.751Z,9.93
2017-06-10T02:34:47.128Z,11.40
2017-06-10T02:37:19.391Z,10.23
2017-06-10T02:39:51.731Z,9.67
2017-06-10T02:42:24.256Z,9.90
2017-06-10T02:44:56.540Z,10.60
2017-06-10T02:47:29.029Z,10.50
2017-06-10T02:50:01.416Z,10.60
2017-06-10T02:52:33.935Z,10.67
2017-06-10T02:55:06.429Z,10.87
2017-06-10T02:57:38.843Z,9.57
2017-06-10T03:00:11.313Z,9.67
2017-06-10T03:02:43.676Z,9.53
2017-06-10T03:05:16.014Z,9.10
2017-06-10T03:07:48.417Z,8.70
2017-06-10T03:10:20.843Z,9.10
2017-06-10T03:12:53.475Z,8.67
2017-06-10T03:15:25.913Z,8.97
2017-06-10T03:17:58.211Z,11.73
2017-06-10T03:20:30.672Z,10.83
2017-06-10T03:23:03.134Z,10.40
2017-06-10T03:25:35.510Z,9.83
2017-06-10T03:28:08.102Z,9.77
2017-06-10T03:30:40.559Z,9.50
2017-06-10T03:33:13.003Z,9.13
2017-06-10T03:35:46.054Z,8.40
2017-06-10T03:38:18.597Z,8.10
2017-06-10T03:40:51.312Z,8.97
2017-06-10T03:43:23.554Z,7.97
2017-06-10T03:45:55.896Z,7.77
2017-06-10T03:48:28.339Z,8.17
2017-06-10T03:51:00.789Z,8.93
2017-06-10T03:53:33.130Z,7.63
2017-06-10T03:56:05.551Z,6.93
2017-06-10T03:58:37.811Z,6.90
2017-06-10T04:01:10.191Z,6.43
2017-06-10T04:03:42.527Z,6.07
2017-06-10T04:06:29.988Z,5.57
2017-06-10T04:09:02.583Z,5.50
2017-06-10T04:11:34.932Z,5.30
2017-06-10T04:14:07.295Z,5.27
2017-06-10T04:16:39.762Z,5.00
2017-06-10T04:19:12.142Z,5.03
2017-06-10T04:21:44.539Z,4.33
2017-06-10T04:24:16.915Z,4.60
2017-06-10T04:26:49.407Z,3.70
2017-06-10T04:29:21.763Z,4.10
2017-06-10T04:31:54.081Z,3.63
2017-06-10T04:34:26.601Z,3.57
2017-06-10T04:36:58.896Z,4.33
2017-06-10T04:39:31.316Z,3.53
2017-06-10T04:42:04.111Z,3.33
2017-06-10T04:44:36.348Z,4.60
2017-06-10T04:47:08.655Z,3.60
2017-06-10T04:49:41.004Z,3.43
2017-06-10T04:52:13.432Z,4.20
2017-06-10T04:54:45.744Z,3.63
2017-06-10T04:57:19.236Z,3.40
2017-06-10T04:59:51.827Z,3.33
2017-06-10T05:02:23.979Z,3.73
2017-06-10T05:04:56.395Z,3.90
2017-06-10T05:07:28.811Z,3.40
2017-06-10T05:10:01.111Z,3.33
2017-06-10T05:12:33.571Z,3.77
2017-06-10T05:15:13.071Z,4.53
2017-06-10T05:17:45.888Z,3.10
2017-06-10T05:20:18.260Z,3.63
2017-06-10T05:22:50.739Z,3.50
2017-06-10T05:25:23.139Z,3.63
2017-06-10T05:27:55.593Z,3.13
2017-06-10T05:30:27.899Z,3.53
2017-06-10T05:33:00.567Z,3.10
2017-06-10T05:35:32.673Z,3.60
2017-06-10T05:38:05.059Z,3.40
2017-06-10T05:40:37.336Z,4.33
2017-06-10T05:43:09.668Z,3.10
2017-06-10T05:45:42.020Z,3.27
2017-06-10T05:48:14.444Z,3.80
2017-06-10T05:50:46.835Z,3.50
2017-06-10T05:53:19.940Z,3.57
2017-06-10T05:55:51.744Z,3.80
2017-06-10T05:58:24.127Z,3.00
2017-06-10T06:00:56.571Z,3.00
2017-06-10T06:03:29.075Z,4.00
2017-06-10T06:06:01.416Z,3.60
2017-06-10T06:08:34.107Z,3.87
2017-06-10T06:11:06.159Z,3.40
2017-06-10T06:13:38.951Z,3.90
2017-06-10T06:16:11.035Z,3.70
2017-06-10T06:18:43.440Z,3.70
2017-06-10T06:21:15.819Z,4.10
2017-06-10T06:23:48.272Z,5.33
2017-06-10T06:26:20.925Z,3.47
2017-06-10T06:28:53.136Z,4.17
2017-06-10T06:31:25.405Z,3.90
2017-06-10T06:33:57.784Z,3.90
2017-06-10T06:36:30.208Z,5.00
2017-06-10T06:39:02.987Z,3.70
2017-06-10T06:41:35.115Z,3.63
2017-06-10T06:44:07.480Z,3.93
2017-06-10T06:46:39.940Z,3.80
2017-06-10T06:49:12.255Z,4.03
2017-06-10T06:51:44.554Z,4.63
2017-06-10T06:54:16.972Z,3.70
2017-06-10T06:56:49.987Z,3.90
2017-06-10T06:59:29.621Z,4.10
2017-06-10T07:02:02.131Z,3.50
2017-06-10T07:04:34.573Z,4.17
2017-06-10T07:07:06.950Z,4.60
2017-06-10T07:09:39.312Z,4.10
2017-06-10T07:12:11.707Z,4.73
2017-06-10T07:14:44.138Z,4.80
2017-06-10T07:17:16.716Z,4.00
2017-06-10T07:19:49.136Z,3.80
2017-06-10T07:22:21.604Z,3.73
2017-06-10T07:24:54.164Z,4.23
2017-06-10T07:27:26.516Z,4.30
2017-06-10T07:29:59.008Z,4.40
2017-06-10T07:32:31.351Z,4.30
2017-06-10T07:35:03.699Z,4.00
2017-06-10T07:37:36.076Z,3.57
2017-06-10T07:40:08.324Z,3.40
2017-06-10T07:42:40.831Z,3.77
2017-06-10T07:45:13.240Z,3.03
2017-06-10T07:47:45.571Z,3.73
2017-06-10T07:50:17.984Z,3.47
2017-06-10T07:52:50.304Z,3.50
2017-06-10T07:55:22.784Z,3.33
2017-06-10T07:57:55.223Z,3.10
2017-06-10T08:00:27.760Z,3.30
2017-06-10T08:03:00.249Z,3.43
2017-06-10T08:05:32.914Z,2.83
2017-06-10T08:08:05.099Z,2.87
2017-06-10T08:10:37.552Z,2.60
2017-06-10T08:13:09.884Z,3.40
2017-06-10T08:15:43.272Z,3.20
2017-06-10T08:18:15.615Z,3.20
2017-06-10T08:20:48.108Z,4.33
2017-06-10T08:23:20.931Z,2.70
2017-06-10T08:25:53.026Z,2.80
2017-06-10T08:28:25.482Z,3.43
2017-06-10T08:30:58.020Z,2.60
2017-06-10T08:33:30.318Z,3.23
2017-06-10T08:36:02.764Z,2.53
2017-06-10T08:38:35.106Z,2.63
2017-06-10T08:41:07.777Z,2.47
2017-06-10T08:43:39.830Z,2.60
2017-06-10T08:46:12.279Z,2.30
2017-06-10T08:48:44.775Z,2.60
2017-06-10T08:51:17.168Z,2.90
2017-06-10T08:53:49.608Z,3.20
2017-06-10T08:56:22.039Z,3.70
2017-06-10T08:58:54.728Z,3.10
2017-06-10T09:01:26.909Z,4.03
2017-06-10T09:03:59.247Z,2.30
2017-06-10T09:06:31.595Z,3.23
2017-06-10T09:09:04.037Z,3.20
2017-06-10T09:11:36.404Z,3.00
2017-06-10T09:14:08.702Z,3.40
2017-06-10T09:16:41.119Z,3.60
2017-06-10T09:19:13.483Z,3.53
2017-06-10T09:21:45.959Z,3.40
2017-06-10T09:24:18.254Z,2.80
2017-06-10T09:26:50.543Z,3.07
2017-06-10T09:29:22.904Z,3.67
2017-06-10T09:31:55.294Z,3.13
2017-06-10T09:34:27.672Z,3.83
2017-06-10T09:36:59.916Z,3.53
2017-06-10T09:39:32.270Z,3.00
2017-06-10T09:42:04.679Z,3.40
2017-06-10T09:44:36.895Z,3.37
2017-06-10T09:47:09.313Z,3.17
2017-06-10T09:49:41.635Z,3.03
2017-06-10T09:52:14.099Z,3.43
2017-06-10T09:54:46.458Z,3.43
2017-06-10T09:57:18.905Z,3.00
2017-06-10T09:59:51.124Z,3.43
2017-06-10T10:02:23.658Z,3.30
2017-06-10T10:04:56.231Z,3.27
2017-06-10T10:07:28.393Z,4.10
2017-06-10T10:10:01.064Z,2.73
2017-06-10T10:12:33.088Z,3.17
2017-06-10T10:15:05.650Z,3.00
2017-06-10T10:17:38.281Z,3.30
2017-06-10T10:20:10.368Z,2.80
2017-06-10T10:22:42.710Z,4.13
2017-06-10T10:25:15.190Z,3.07
2017-06-10T10:27:47.600Z,2.97
2017-06-10T10:30:19.959Z,3.40
2017-06-10T10:32:52.372Z,2.60
2017-06-10T10:35:24.938Z,2.70
2017-06-10T10:37:57.207Z,2.93
2017-06-10T10:40:29.473Z,3.00
2017-06-10T10:43:01.934Z,3.00
2017-06-10T10:45:34.283Z,2.70
2017-06-10T10:48:06.729Z,2.53
2017-06-10T10:50:39.118Z,2.80
2017-06-10T10:53:11.361Z,2.37
2017-06-10T10:55:43.691Z,2.40
2017-06-10T11:10:02.872Z,3.53
2017-06-10T11:12:35.047Z,3.07
2017-06-10T11:15:07.366Z,3.13
2017-06-10T11:17:39.847Z,3.80
2017-06-10T11:20:12.168Z,3.63
2017-06-10T11:22:44.735Z,2.97
2017-06-10T11:25:17.216Z,2.60
2017-06-10T11:27:49.637Z,2.80
2017-06-10T11:30:21.984Z,4.20
2017-06-10T11:32:54.547Z,2.80
2017-06-10T11:35:27.159Z,3.00
2017-06-10T11:37:59.581Z,2.50
2017-06-10T11:40:31.951Z,2.70
2017-06-10T11:43:04.954Z,2.70
2017-06-10T11:45:36.942Z,2.47
2017-06-10T11:48:09.159Z,3.33
2017-06-10T11:50:41.566Z,2.67
2017-06-10T11:53:14.024Z,2.70
2017-06-10T11:55:46.537Z,2.80
2017-06-10T11:58:18.744Z,3.37
2017-06-10T12:00:51.036Z,2.80
2017-06-10T12:03:24.495Z,2.63
2017-06-10T12:05:57.283Z,2.90
2017-06-10T12:08:29.450Z,2.53
2017-06-10T12:11:01.971Z,2.70
2017-06-10T12:13:35.323Z,2.43
2017-06-10T12:16:07.819Z,2.83
2017-06-10T12:18:40.680Z,2.30
2017-06-10T12:21:12.877Z,2.90
2017-06-10T12:23:45.300Z,3.37
2017-06-10T12:26:17.641Z,2.27
2017-06-10T12:28:50.006Z,2.17
2017-06-10T12:31:22.379Z,1.80
2017-06-10T12:33:54.872Z,2.13
2017-06-10T12:36:27.315Z,2.20
2017-06-10T12:38:59.670Z,1.90
2017-06-10T12:41:31.979Z,1.83
2017-06-10T12:44:04.627Z,2.27
2017-06-10T12:46:36.724Z,2.27
2017-06-10T12:49:09.020Z,2.30
2017-06-10T12:51:41.242Z,2.33
2017-06-10T12:54:13.727Z,2.77
2017-06-10T12:56:46.419Z,2.30
2017-06-10T12:59:18.659Z,2.60
2017-06-10T13:01:51.070Z,2.23
2017-06-10T13:04:23.591Z,2.40
2017-06-10T13:06:55.920Z,2.80
2017-06-10T13:09:28.319Z,2.60
2017-06-10T13:12:00.944Z,2.10
2017-06-10T13:14:33.090Z,2.00
2017-06-10T13:17:05.517Z,2.30
2017-06-10T13:19:37.990Z,2.10
2017-06-10T13:22:10.254Z,1.87
2017-06-10T13:24:42.806Z,2.73
2017-06-10T13:27:14.884Z,2.73
2017-06-10T13:29:47.374Z,2.50
2017-06-10T13:32:19.759Z,3.03
2017-06-10T13:34:52.049Z,2.93
2017-06-10T13:37:24.503Z,3.07
2017-06-10T13:39:56.919Z,2.60
2017-06-10T13:42:29.356Z,2.70
2017-06-10T13:45:01.810Z,3.80
2017-06-10T13:47:34.276Z,3.00
2017-06-10T13:50:07.501Z,3.10
2017-06-10T13:52:39.852Z,3.03
2017-06-10T13:55:12.130Z,3.87
2017-06-10T13:57:44.574Z,3.50
2017-06-10T14:00:17.191Z,3.50
2017-06-10T14:02:49.630Z,3.60
2017-06-10T14:05:22.051Z,3.33
2017-06-10T14:07:54.404Z,3.40
2017-06-10T14:10:26.907Z,2.97
2017-06-10T14:12:59.363Z,3.40
2017-06-10T14:15:31.864Z,3.20
2017-06-10T14:18:04.287Z,2.90
2017-06-10T14:20:37.199Z,2.90
2017-06-10T14:23:09.214Z,2.63
2017-06-10T14:25:41.555Z,3.10
2017-06-10T14:28:14.110Z,3.07
2017-06-10T14:30:46.611Z,3.33
2017-06-10T14:33:19.079Z,3.40
2017-06-10T14:35:51.585Z,4.13
2017-06-10T14:38:23.955Z,3.57
2017-06-10T14:40:56.527Z,3.63
2017-06-10T14:43:28.976Z,3.33
2017-06-10T14:46:01.356Z,3.83
2017-06-10T14:48:43.722Z,4.33
2017-06-10T14:51:16.276Z,3.43
2017-06-10T14:53:49.435Z,3.40
2017-06-10T14:56:22.203Z,3.33
2017-06-10T14:58:54.578Z,2.93
2017-06-10T15:01:26.988Z,2.90
2017-06-10T15:03:59.419Z,3.10
2017-06-10T15:06:31.817Z,3.17
2017-06-10T15:09:04.208Z,4.93
2017-06-10T15:11:36.720Z,14.80
2017-06-10T15:14:09.964Z,3.53
2017-06-10T15:16:42.430Z,3.27
2017-06-10T15:19:14.947Z,2.70
2017-06-10T15:21:47.359Z,3.03
2017-06-10T15:24:19.797Z,2.63
2017-06-10T15:26:52.239Z,2.63
2017-06-10T15:29:24.759Z,2.73
2017-06-10T15:31:57.112Z,2.70
2017-06-10T15:34:30.415Z,2.60
2017-06-10T15:37:02.943Z,2.10
2017-06-10T15:39:35.339Z,3.10
2017-06-10T15:42:07.894Z,2.83
2017-06-10T15:44:41.063Z,2.20
2017-06-10T15:47:13.683Z,1.90
2017-06-10T15:49:46.315Z,2.00
2017-06-10T15:52:18.932Z,2.93
2017-06-10T15:54:51.298Z,2.67
2017-06-10T15:57:23.746Z,4.43
2017-06-10T15:59:56.234Z,2.83
2017-06-10T16:02:28.732Z,4.20
2017-06-10T16:05:01.275Z,6.10
2017-06-10T16:07:33.807Z,5.03
2017-06-10T16:10:06.323Z,7.33
2017-06-10T16:12:38.894Z,4.90
2017-06-10T16:16:54.351Z,3.00
2017-06-10T16:19:26.751Z,3.20
2017-06-10T16:21:59.135Z,3.83
2017-06-10T16:24:31.583Z,3.00
2017-06-10T16:27:03.944Z,2.60
2017-06-10T16:29:36.316Z,3.13
2017-06-10T16:32:08.743Z,2.50
2017-06-10T16:34:41.220Z,2.90
2017-06-10T16:37:13.936Z,2.70
2017-06-10T16:39:46.194Z,2.77
2017-06-10T16:42:18.433Z,2.00
2017-06-10T16:44:50.891Z,2.37
2017-06-10T16:47:23.220Z,2.03
2017-06-10T16:49:55.595Z,2.10
2017-06-10T16:52:27.863Z,2.33
2017-06-10T16:55:07.015Z,2.30
2017-06-10T16:57:39.650Z,1.77
2017-06-10T17:00:12.079Z,2.17
2017-06-10T17:02:44.369Z,2.37
2017-06-10T17:05:16.605Z,2.40
2017-06-10T17:07:48.851Z,2.20
2017-06-10T17:10:21.250Z,2.40
2017-06-10T17:12:53.632Z,3.00
2017-06-10T17:15:25.986Z,2.43
2017-06-10T17:17:58.343Z,2.20
2017-06-10T17:20:30.826Z,1.90
2017-06-10T17:23:03.220Z,2.10
2017-06-10T17:25:35.491Z,2.23
2017-06-10T17:28:07.799Z,2.03
2017-06-10T17:43:24.927Z,2.10
2017-06-10T17:45:56.933Z,2.40
2017-06-10T17:48:29.190Z,2.37
2017-06-10T17:51:01.552Z,2.00
2017-06-10T17:53:33.983Z,1.80
2017-06-10T17:56:06.343Z,2.23
2017-06-10T17:58:38.728Z,2.10
2017-06-10T18:01:10.940Z,2.30
2017-06-10T18:03:43.419Z,4.00
2017-06-10T18:06:15.798Z,2.10
2017-06-10T18:08:48.335Z,2.20
2017-06-10T18:11:20.729Z,1.90
2017-06-10T18:13:53.091Z,2.20
2017-06-10T18:16:25.483Z,2.30
2017-06-10T18:18:58.832Z,2.00
2017-06-10T18:21:31.230Z,1.70
2017-06-10T18:24:03.755Z,2.23
2017-06-10T18:26:36.300Z,2.10
2017-06-10T18:29:08.127Z,2.30
2017-06-10T18:31:40.943Z,2.30
2017-06-10T18:34:12.884Z,2.90
2017-06-10T18:36:44.791Z,3.13
2017-06-10T18:39:17.175Z,2.87
2017-06-10T18:41:49.747Z,3.10
2017-06-10T18:44:22.085Z,2.67
2017-06-10T18:46:54.464Z,2.93
2017-06-10T18:49:27.456Z,3.10
2017-06-10T18:51:59.930Z,2.60
2017-06-10T18:54:32.020Z,2.93
2017-06-10T18:57:04.412Z,3.63
2017-06-10T18:59:36.758Z,3.17
2017-06-10T19:02:09.110Z,2.63
2017-06-10T19:04:41.646Z,2.50
2017-06-10T19:07:14.374Z,2.50
2017-06-10T19:09:46.284Z,3.47
2017-06-10T19:12:18.599Z,2.93
2017-06-10T19:14:51.100Z,2.40
2017-06-10T19:17:23.555Z,2.40
2017-06-10T19:19:55.935Z,2.40
2017-06-10T19:22:28.311Z,2.80
2017-06-10T19:25:00.728Z,2.20
2017-06-10T19:27:33.060Z,2.60
2017-06-10T19:30:05.455Z,2.33
2017-06-10T19:32:37.883Z,2.60
2017-06-10T19:35:10.298Z,3.00
2017-06-10T19:37:42.720Z,2.20
2017-06-10T19:40:15.283Z,2.37
2017-06-10T19:42:47.521Z,2.43
2017-06-10T19:45:19.884Z,2.60
2017-06-10T19:47:52.456Z,2.20
2017-06-10T19:50:24.955Z,2.37
2017-06-10T19:52:57.391Z,2.73
2017-06-10T19:55:29.704Z,2.43
2017-06-10T19:58:02.143Z,2.70
2017-06-10T20:00:34.511Z,2.90
2017-06-10T20:03:06.824Z,3.10
2017-06-10T20:05:39.640Z,2.80
2017-06-10T20:08:11.650Z,3.87
2017-06-10T20:10:44.151Z,2.70
2017-06-10T20:13:16.798Z,2.80
2017-06-10T20:15:49.295Z,2.83
2017-06-10T20:18:21.471Z,2.67
2017-06-10T20:20:53.934Z,2.43
2017-06-10T20:23:26.272Z,2.83
2017-06-10T20:25:59.587Z,3.53
2017-06-10T20:28:32.368Z,2.97
2017-06-10T20:31:04.568Z,3.10
2017-06-10T20:33:36.811Z,2.77
2017-06-10T20:36:10.108Z,2.77
2017-06-10T20:38:42.466Z,2.50
2017-06-10T20:41:15.588Z,2.53
2017-06-10T20:43:48.368Z,2.50
2017-06-10T20:46:22.744Z,2.90
2017-06-10T20:48:55.085Z,2.50
2017-06-10T20:51:27.520Z,2.53
2017-06-10T20:53:59.891Z,2.97
2017-06-10T20:56:32.358Z,3.20
2017-06-10T20:59:04.888Z,3.50
2017-06-10T21:01:37.106Z,3.73
2017-06-10T21:04:09.550Z,3.50
2017-06-10T21:06:41.942Z,3.20
2017-06-10T21:09:14.481Z,2.93
2017-06-10T21:11:47.353Z,3.20
2017-06-10T21:14:19.233Z,3.17
2017-06-10T21:16:51.796Z,3.60
2017-06-10T21:19:25.987Z,3.30
2017-06-10T21:21:58.629Z,4.20
2017-06-10T21:24:30.892Z,3.63
2017-06-10T21:27:10.377Z,4.03
2017-06-10T21:29:42.820Z,3.60
2017-06-10T21:32:15.360Z,3.60
2017-06-10T21:34:47.695Z,3.37
2017-06-10T21:37:20.107Z,3.97
2017-06-10T21:39:52.412Z,3.97
2017-06-10T21:42:24.761Z,3.27
2017-06-10T21:44:57.239Z,3.77
2017-06-10T21:47:29.575Z,4.37
2017-06-10T21:50:02.020Z,4.00
2017-06-10T21:52:34.466Z,4.03
2017-06-10T21:55:06.808Z,3.60
2017-06-10T21:57:39.313Z,4.10
2017-06-10T22:00:11.684Z,4.03
2017-06-10T22:02:44.051Z,4.10
2017-06-10T22:05:16.445Z,4.40
2017-06-10T22:07:48.905Z,4.90
2017-06-10T22:10:21.248Z,5.03
2017-06-10T22:12:53.598Z,4.70
2017-06-10T22:15:25.905Z,4.47
2017-06-10T22:17:58.411Z,4.73
2017-06-10T22:20:30.854Z,4.30
2017-06-10T22:23:03.213Z,4.63
2017-06-10T22:25:35.136Z,4.33
2017-06-10T22:28:07.607Z,4.50
2017-06-10T22:30:39.903Z,5.10
2017-06-10T22:33:12.415Z,4.07
2017-06-10T22:35:44.964Z,4.27
2017-06-10T22:38:17.404Z,4.20
2017-06-10T22:40:49.804Z,4.00
2017-06-10T22:43:22.304Z,4.60
2017-06-10T22:45:54.567Z,5.03
2017-06-10T22:48:26.919Z,4.20
2017-06-10T22:50:59.295Z,4.87
2017-06-10T22:53:31.591Z,5.30
2017-06-10T22:56:03.995Z,4.67
2017-06-10T22:58:36.391Z,4.90
2017-06-10T23:01:08.853Z,5.10
2017-06-10T23:03:41.299Z,4.73
2017-06-10T23:06:13.848Z,5.13
2017-06-10T23:08:46.075Z,4.50
2017-06-10T23:11:18.548Z,5.30
2017-06-10T23:13:51.076Z,4.40
2017-06-10T23:16:23.153Z,5.20
2017-06-10T23:18:55.551Z,5.53
2017-06-10T23:21:27.836Z,5.10
2017-06-10T23:24:00.287Z,4.80
2017-06-10T23:26:32.667Z,4.60
2017-06-10T23:29:05.948Z,5.90
2017-06-10T23:31:38.539Z,4.40
2017-06-10T23:34:10.940Z,4.73
2017-06-10T23:36:43.272Z,4.40
2017-06-10T23:39:15.662Z,5.80
2017-06-10T23:41:49.088Z,4.77
2017-06-10T23:44:21.575Z,4.67
2017-06-10T23:46:53.904Z,4.70
2017-06-10T23:49:26.236Z,6.00
2017-06-10T23:51:58.591Z,6.10
2017-06-10T23:54:31.076Z,5.20
2017-06-10T23:57:03.391Z,5.70
2017-06-10T23:59:35.796Z,4.70
